sensor_id;sensor_type;location;lat;lon;timestamp;P1;durP1;ratioP1;P2;durP2;ratioP2
49051;SDS011;34866;48.670;18.260;2023-05-09T00:00:44;6.03;;;3.05;;
49051;SDS011;34866;48.670;18.260;2023-05-09T00:03:10;8.95;;;3.50;;
49051;SDS011;34866;48.670;18.260;2023-05-09T00:05:44;6.53;;;3.78;;
49051;SDS011;34866;48.670;18.260;2023-05-09T00:08:10;7.60;;;3.22;;
49051;SDS011;34866;48.670;18.260;2023-05-09T00:10:35;5.25;;;2.65;;
49051;SDS011;34866;48.670;18.260;2023-05-09T00:13:01;5.35;;;2.83;;
49051;SDS011;34866;48.670;18.260;2023-05-09T00:15:27;8.32;;;3.20;;
49051;SDS011;34866;48.670;18.260;2023-05-09T00:17:53;6.55;;;2.80;;
49051;SDS011;34866;48.670;18.260;2023-05-09T00:20:20;6.97;;;3.03;;
49051;SDS011;34866;48.670;18.260;2023-05-09T00:22:46;7.07;;;3.08;;
49051;SDS011;34866;48.670;18.260;2023-05-09T00:25:11;10.50;;;3.42;;
49051;SDS011;34866;48.670;18.260;2023-05-09T00:27:37;8.55;;;3.50;;
49051;SDS011;34866;48.670;18.260;2023-05-09T00:30:03;5.93;;;3.08;;
49051;SDS011;34866;48.670;18.260;2023-05-09T00:32:30;5.28;;;2.45;;
49051;SDS011;34866;48.670;18.260;2023-05-09T00:34:57;5.97;;;2.78;;
49051;SDS011;34866;48.670;18.260;2023-05-09T00:37:22;11.93;;;3.80;;
49051;SDS011;34866;48.670;18.260;2023-05-09T00:39:49;9.38;;;3.45;;
49051;SDS011;34866;48.670;18.260;2023-05-09T00:42:15;8.35;;;3.88;;
49051;SDS011;34866;48.670;18.260;2023-05-09T00:44:41;9.15;;;4.60;;
49051;SDS011;34866;48.670;18.260;2023-05-09T00:47:07;8.30;;;3.75;;
49051;SDS011;34866;48.670;18.260;2023-05-09T00:49:33;8.02;;;3.67;;
49051;SDS011;34866;48.670;18.260;2023-05-09T00:52:04;11.57;;;3.72;;
49051;SDS011;34866;48.670;18.260;2023-05-09T00:54:29;8.43;;;4.40;;
49051;SDS011;34866;48.670;18.260;2023-05-09T00:56:55;12.82;;;3.95;;
49051;SDS011;34866;48.670;18.260;2023-05-09T00:59:22;7.47;;;3.47;;
49051;SDS011;34866;48.670;18.260;2023-05-09T01:01:48;7.70;;;3.38;;
49051;SDS011;34866;48.670;18.260;2023-05-09T01:04:15;5.78;;;3.10;;
49051;SDS011;34866;48.670;18.260;2023-05-09T01:09:36;7.60;;;3.22;;
49051;SDS011;34866;48.670;18.260;2023-05-09T01:15:15;10.43;;;3.90;;
49051;SDS011;34866;48.670;18.260;2023-05-09T01:17:59;7.90;;;4.35;;
49051;SDS011;34866;48.670;18.260;2023-05-09T01:20:45;6.03;;;3.58;;
49051;SDS011;34866;48.670;18.260;2023-05-09T01:29:26;9.52;;;3.40;;
49051;SDS011;34866;48.670;18.260;2023-05-09T01:31:56;9.30;;;4.40;;
49051;SDS011;34866;48.670;18.260;2023-05-09T01:34:25;9.50;;;4.18;;
49051;SDS011;34866;48.670;18.260;2023-05-09T01:36:53;7.30;;;3.90;;
49051;SDS011;34866;48.670;18.260;2023-05-09T01:39:22;12.10;;;3.88;;
49051;SDS011;34866;48.670;18.260;2023-05-09T01:41:49;6.32;;;3.30;;
49051;SDS011;34866;48.670;18.260;2023-05-09T01:44:18;7.70;;;4.20;;
49051;SDS011;34866;48.670;18.260;2023-05-09T01:46:46;7.68;;;3.58;;
49051;SDS011;34866;48.670;18.260;2023-05-09T01:49:14;6.03;;;3.38;;
49051;SDS011;34866;48.670;18.260;2023-05-09T01:51:42;7.82;;;3.85;;
49051;SDS011;34866;48.670;18.260;2023-05-09T01:54:09;10.35;;;4.05;;
49051;SDS011;34866;48.670;18.260;2023-05-09T01:56:35;13.95;;;3.33;;
49051;SDS011;34866;48.670;18.260;2023-05-09T01:59:03;7.07;;;3.90;;
49051;SDS011;34866;48.670;18.260;2023-05-09T02:01:31;12.98;;;4.13;;
49051;SDS011;34866;48.670;18.260;2023-05-09T02:03:56;6.28;;;3.25;;
49051;SDS011;34866;48.670;18.260;2023-05-09T02:06:23;7.72;;;3.50;;
49051;SDS011;34866;48.670;18.260;2023-05-09T02:08:53;10.02;;;3.70;;
49051;SDS011;34866;48.670;18.260;2023-05-09T02:11:20;9.13;;;3.58;;
49051;SDS011;34866;48.670;18.260;2023-05-09T02:13:46;7.30;;;3.80;;
49051;SDS011;34866;48.670;18.260;2023-05-09T02:16:12;5.78;;;3.53;;
49051;SDS011;34866;48.670;18.260;2023-05-09T02:18:38;10.02;;;3.72;;
49051;SDS011;34866;48.670;18.260;2023-05-09T02:21:04;6.40;;;3.63;;
49051;SDS011;34866;48.670;18.260;2023-05-09T02:23:30;7.20;;;3.58;;
49051;SDS011;34866;48.670;18.260;2023-05-09T02:25:59;12.73;;;4.78;;
49051;SDS011;34866;48.670;18.260;2023-05-09T02:28:26;8.52;;;4.10;;
49051;SDS011;34866;48.670;18.260;2023-05-09T02:30:53;9.77;;;3.70;;
49051;SDS011;34866;48.670;18.260;2023-05-09T02:33:20;7.13;;;2.97;;
49051;SDS011;34866;48.670;18.260;2023-05-09T02:35:47;7.07;;;4.00;;
49051;SDS011;34866;48.670;18.260;2023-05-09T02:38:14;8.68;;;3.83;;
49051;SDS011;34866;48.670;18.260;2023-05-09T02:40:41;10.40;;;4.65;;
49051;SDS011;34866;48.670;18.260;2023-05-09T02:43:09;7.07;;;3.75;;
49051;SDS011;34866;48.670;18.260;2023-05-09T02:45:35;9.73;;;4.35;;
49051;SDS011;34866;48.670;18.260;2023-05-09T02:48:01;6.10;;;2.97;;
49051;SDS011;34866;48.670;18.260;2023-05-09T02:50:27;7.80;;;4.00;;
49051;SDS011;34866;48.670;18.260;2023-05-09T02:52:59;5.95;;;3.08;;
49051;SDS011;34866;48.670;18.260;2023-05-09T02:55:24;6.43;;;3.42;;
49051;SDS011;34866;48.670;18.260;2023-05-09T02:57:50;7.03;;;3.38;;
49051;SDS011;34866;48.670;18.260;2023-05-09T03:00:17;6.53;;;3.63;;
49051;SDS011;34866;48.670;18.260;2023-05-09T03:02:45;6.45;;;3.47;;
49051;SDS011;34866;48.670;18.260;2023-05-09T03:05:11;9.90;;;3.72;;
49051;SDS011;34866;48.670;18.260;2023-05-09T03:07:37;7.65;;;3.97;;
49051;SDS011;34866;48.670;18.260;2023-05-09T03:10:03;5.95;;;2.97;;
49051;SDS011;34866;48.670;18.260;2023-05-09T03:12:29;6.70;;;3.70;;
49051;SDS011;34866;48.670;18.260;2023-05-09T03:14:54;5.22;;;2.80;;
49051;SDS011;34866;48.670;18.260;2023-05-09T03:17:20;7.78;;;3.28;;
49051;SDS011;34866;48.670;18.260;2023-05-09T03:19:47;6.57;;;3.17;;
49051;SDS011;34866;48.670;18.260;2023-05-09T03:22:13;7.28;;;3.10;;
49051;SDS011;34866;48.670;18.260;2023-05-09T03:24:39;13.02;;;3.40;;
49051;SDS011;34866;48.670;18.260;2023-05-09T03:27:06;8.75;;;3.25;;
49051;SDS011;34866;48.670;18.260;2023-05-09T03:29:31;10.38;;;2.90;;
49051;SDS011;34866;48.670;18.260;2023-05-09T03:31:57;12.68;;;3.58;;
49051;SDS011;34866;48.670;18.260;2023-05-09T03:34:24;5.60;;;2.10;;
49051;SDS011;34866;48.670;18.260;2023-05-09T03:36:50;7.50;;;3.78;;
49051;SDS011;34866;48.670;18.260;2023-05-09T03:39:16;9.23;;;3.97;;
49051;SDS011;34866;48.670;18.260;2023-05-09T03:41:41;6.53;;;3.78;;
49051;SDS011;34866;48.670;18.260;2023-05-09T03:44:08;7.60;;;3.42;;
49051;SDS011;34866;48.670;18.260;2023-05-09T03:46:34;7.18;;;3.08;;
49051;SDS011;34866;48.670;18.260;2023-05-09T03:48:59;12.50;;;3.20;;
49051;SDS011;34866;48.670;18.260;2023-05-09T03:51:25;7.25;;;3.55;;
49051;SDS011;34866;48.670;18.260;2023-05-09T03:53:51;7.20;;;3.50;;
49051;SDS011;34866;48.670;18.260;2023-05-09T03:56:16;6.65;;;3.50;;
49051;SDS011;34866;48.670;18.260;2023-05-09T03:58:42;7.00;;;3.42;;
49051;SDS011;34866;48.670;18.260;2023-05-09T04:01:08;7.40;;;2.85;;
49051;SDS011;34866;48.670;18.260;2023-05-09T04:03:35;12.07;;;3.78;;
49051;SDS011;34866;48.670;18.260;2023-05-09T04:06:03;8.60;;;3.83;;
49051;SDS011;34866;48.670;18.260;2023-05-09T04:08:29;11.23;;;3.10;;
49051;SDS011;34866;48.670;18.260;2023-05-09T04:10:54;18.20;;;3.45;;
49051;SDS011;34866;48.670;18.260;2023-05-09T04:13:20;7.90;;;3.50;;
49051;SDS011;34866;48.670;18.260;2023-05-09T04:15:49;6.45;;;3.38;;
49051;SDS011;34866;48.670;18.260;2023-05-09T04:18:18;8.40;;;3.42;;
49051;SDS011;34866;48.670;18.260;2023-05-09T04:20:43;9.02;;;3.83;;
49051;SDS011;34866;48.670;18.260;2023-05-09T04:23:09;11.02;;;4.38;;
49051;SDS011;34866;48.670;18.260;2023-05-09T04:25:35;14.63;;;3.88;;
49051;SDS011;34866;48.670;18.260;2023-05-09T04:28:01;6.53;;;3.08;;
49051;SDS011;34866;48.670;18.260;2023-05-09T04:30:28;6.40;;;3.35;;
49051;SDS011;34866;48.670;18.260;2023-05-09T04:32:55;9.82;;;4.85;;
49051;SDS011;34866;48.670;18.260;2023-05-09T04:35:21;9.27;;;2.95;;
49051;SDS011;34866;48.670;18.260;2023-05-09T04:37:53;7.28;;;3.55;;
49051;SDS011;34866;48.670;18.260;2023-05-09T04:40:22;7.90;;;3.80;;
49051;SDS011;34866;48.670;18.260;2023-05-09T04:42:47;7.32;;;3.30;;
49051;SDS011;34866;48.670;18.260;2023-05-09T04:45:13;25.63;;;4.30;;
49051;SDS011;34866;48.670;18.260;2023-05-09T04:47:39;11.10;;;5.10;;
49051;SDS011;34866;48.670;18.260;2023-05-09T04:50:08;7.55;;;3.50;;
49051;SDS011;34866;48.670;18.260;2023-05-09T04:52:34;14.30;;;4.22;;
49051;SDS011;34866;48.670;18.260;2023-05-09T04:55:00;9.10;;;4.85;;
49051;SDS011;34866;48.670;18.260;2023-05-09T04:57:26;9.48;;;4.38;;
49051;SDS011;34866;48.670;18.260;2023-05-09T04:59:51;11.95;;;4.97;;
49051;SDS011;34866;48.670;18.260;2023-05-09T05:02:17;10.30;;;4.05;;
49051;SDS011;34866;48.670;18.260;2023-05-09T05:04:43;8.63;;;4.45;;
49051;SDS011;34866;48.670;18.260;2023-05-09T05:07:09;11.13;;;4.03;;
49051;SDS011;34866;48.670;18.260;2023-05-09T05:09:34;9.35;;;4.68;;
49051;SDS011;34866;48.670;18.260;2023-05-09T05:12:00;10.55;;;3.90;;
49051;SDS011;34866;48.670;18.260;2023-05-09T05:14:26;9.68;;;4.38;;
49051;SDS011;34866;48.670;18.260;2023-05-09T05:16:51;9.63;;;3.13;;
49051;SDS011;34866;48.670;18.260;2023-05-09T05:19:17;10.43;;;3.30;;
49051;SDS011;34866;48.670;18.260;2023-05-09T05:21:43;9.30;;;3.67;;
49051;SDS011;34866;48.670;18.260;2023-05-09T05:24:08;5.90;;;3.05;;
49051;SDS011;34866;48.670;18.260;2023-05-09T05:26:34;6.70;;;3.85;;
49051;SDS011;34866;48.670;18.260;2023-05-09T05:29:03;9.75;;;3.90;;
49051;SDS011;34866;48.670;18.260;2023-05-09T05:31:29;5.95;;;3.33;;
49051;SDS011;34866;48.670;18.260;2023-05-09T05:33:54;8.05;;;3.90;;
49051;SDS011;34866;48.670;18.260;2023-05-09T05:36:20;10.38;;;3.90;;
49051;SDS011;34866;48.670;18.260;2023-05-09T05:38:46;8.77;;;3.42;;
49051;SDS011;34866;48.670;18.260;2023-05-09T05:41:12;8.45;;;3.55;;
49051;SDS011;34866;48.670;18.260;2023-05-09T05:43:39;8.43;;;3.85;;
49051;SDS011;34866;48.670;18.260;2023-05-09T05:46:05;7.75;;;4.13;;
49051;SDS011;34866;48.670;18.260;2023-05-09T05:48:31;8.35;;;4.65;;
49051;SDS011;34866;48.670;18.260;2023-05-09T05:50:56;6.55;;;3.65;;
49051;SDS011;34866;48.670;18.260;2023-05-09T05:53:22;8.70;;;4.15;;
49051;SDS011;34866;48.670;18.260;2023-05-09T05:55:48;11.63;;;4.93;;
49051;SDS011;34866;48.670;18.260;2023-05-09T05:58:13;8.95;;;4.05;;
49051;SDS011;34866;48.670;18.260;2023-05-09T06:00:39;7.68;;;3.65;;
49051;SDS011;34866;48.670;18.260;2023-05-09T06:03:05;10.48;;;3.70;;
49051;SDS011;34866;48.670;18.260;2023-05-09T06:05:30;8.68;;;3.88;;
49051;SDS011;34866;48.670;18.260;2023-05-09T06:07:56;7.63;;;3.58;;
49051;SDS011;34866;48.670;18.260;2023-05-09T06:10:22;13.00;;;3.90;;
49051;SDS011;34866;48.670;18.260;2023-05-09T06:12:48;7.30;;;4.22;;
49051;SDS011;34866;48.670;18.260;2023-05-09T06:15:13;7.55;;;3.80;;
49051;SDS011;34866;48.670;18.260;2023-05-09T06:17:39;7.00;;;3.83;;
49051;SDS011;34866;48.670;18.260;2023-05-09T06:20:05;5.75;;;3.05;;
49051;SDS011;34866;48.670;18.260;2023-05-09T06:22:31;6.35;;;3.50;;
49051;SDS011;34866;48.670;18.260;2023-05-09T06:25:03;8.95;;;3.55;;
49051;SDS011;34866;48.670;18.260;2023-05-09T06:27:30;7.03;;;3.40;;
49051;SDS011;34866;48.670;18.260;2023-05-09T06:29:55;9.43;;;3.80;;
49051;SDS011;34866;48.670;18.260;2023-05-09T06:32:21;10.35;;;3.65;;
49051;SDS011;34866;48.670;18.260;2023-05-09T06:34:47;7.55;;;3.70;;
49051;SDS011;34866;48.670;18.260;2023-05-09T06:37:13;7.93;;;3.67;;
49051;SDS011;34866;48.670;18.260;2023-05-09T06:39:38;7.68;;;3.88;;
49051;SDS011;34866;48.670;18.260;2023-05-09T06:42:04;8.65;;;3.78;;
49051;SDS011;34866;48.670;18.260;2023-05-09T06:44:30;8.18;;;3.80;;
49051;SDS011;34866;48.670;18.260;2023-05-09T06:46:56;6.80;;;3.13;;
49051;SDS011;34866;48.670;18.260;2023-05-09T06:49:22;7.10;;;3.17;;
49051;SDS011;34866;48.670;18.260;2023-05-09T06:51:48;6.88;;;3.38;;
49051;SDS011;34866;48.670;18.260;2023-05-09T06:54:13;8.23;;;3.55;;
49051;SDS011;34866;48.670;18.260;2023-05-09T06:56:41;7.90;;;3.90;;
49051;SDS011;34866;48.670;18.260;2023-05-09T06:59:09;6.43;;;3.88;;
49051;SDS011;34866;48.670;18.260;2023-05-09T07:01:41;6.88;;;3.83;;
49051;SDS011;34866;48.670;18.260;2023-05-09T07:04:06;7.35;;;3.75;;
49051;SDS011;34866;48.670;18.260;2023-05-09T07:06:32;8.55;;;3.25;;
49051;SDS011;34866;48.670;18.260;2023-05-09T07:08:58;7.38;;;3.25;;
49051;SDS011;34866;48.670;18.260;2023-05-09T07:11:24;8.15;;;4.03;;
49051;SDS011;34866;48.670;18.260;2023-05-09T07:13:54;7.53;;;3.28;;
49051;SDS011;34866;48.670;18.260;2023-05-09T07:16:19;10.98;;;3.85;;
49051;SDS011;34866;48.670;18.260;2023-05-09T07:18:47;8.93;;;4.40;;
49051;SDS011;34866;48.670;18.260;2023-05-09T07:21:12;8.75;;;3.65;;
49051;SDS011;34866;48.670;18.260;2023-05-09T07:23:38;5.60;;;2.90;;
49051;SDS011;34866;48.670;18.260;2023-05-09T07:26:05;7.03;;;3.42;;
49051;SDS011;34866;48.670;18.260;2023-05-09T07:28:30;8.40;;;3.05;;
49051;SDS011;34866;48.670;18.260;2023-05-09T07:30:56;7.07;;;3.20;;
49051;SDS011;34866;48.670;18.260;2023-05-09T07:33:22;7.60;;;3.75;;
49051;SDS011;34866;48.670;18.260;2023-05-09T07:35:57;6.63;;;3.05;;
49051;SDS011;34866;48.670;18.260;2023-05-09T07:38:23;6.55;;;2.80;;
49051;SDS011;34866;48.670;18.260;2023-05-09T07:40:49;5.95;;;3.22;;
49051;SDS011;34866;48.670;18.260;2023-05-09T07:43:16;7.88;;;2.88;;
49051;SDS011;34866;48.670;18.260;2023-05-09T07:45:47;5.75;;;2.50;;
49051;SDS011;34866;48.670;18.260;2023-05-09T07:48:13;5.80;;;2.85;;
49051;SDS011;34866;48.670;18.260;2023-05-09T07:50:48;5.85;;;2.75;;
49051;SDS011;34866;48.670;18.260;2023-05-09T07:53:13;4.28;;;2.00;;
49051;SDS011;34866;48.670;18.260;2023-05-09T07:55:39;7.90;;;2.58;;
49051;SDS011;34866;48.670;18.260;2023-05-09T07:58:05;6.35;;;2.35;;
49051;SDS011;34866;48.670;18.260;2023-05-09T08:00:30;4.55;;;2.08;;
49051;SDS011;34866;48.670;18.260;2023-05-09T08:02:56;4.88;;;2.20;;
49051;SDS011;34866;48.670;18.260;2023-05-09T08:05:22;5.93;;;2.40;;
49051;SDS011;34866;48.670;18.260;2023-05-09T08:07:47;7.75;;;2.97;;
49051;SDS011;34866;48.670;18.260;2023-05-09T08:10:18;2.97;;;1.50;;
49051;SDS011;34866;48.670;18.260;2023-05-09T08:13:09;3.67;;;1.50;;
49051;SDS011;34866;48.670;18.260;2023-05-09T08:15:36;4.18;;;1.73;;
49051;SDS011;34866;48.670;18.260;2023-05-09T08:18:02;6.90;;;1.42;;
49051;SDS011;34866;48.670;18.260;2023-05-09T08:20:49;3.75;;;1.60;;
49051;SDS011;34866;48.670;18.260;2023-05-09T08:23:18;2.92;;;1.30;;
49051;SDS011;34866;48.670;18.260;2023-05-09T08:26:11;3.45;;;1.17;;
49051;SDS011;34866;48.670;18.260;2023-05-09T08:28:37;4.40;;;1.52;;
49051;SDS011;34866;48.670;18.260;2023-05-09T08:31:02;4.45;;;1.60;;
49051;SDS011;34866;48.670;18.260;2023-05-09T08:33:28;5.63;;;1.58;;
49051;SDS011;34866;48.670;18.260;2023-05-09T08:35:59;3.78;;;1.33;;
49051;SDS011;34866;48.670;18.260;2023-05-09T08:38:50;3.03;;;1.25;;
49051;SDS011;34866;48.670;18.260;2023-05-09T08:41:17;3.55;;;1.33;;
49051;SDS011;34866;48.670;18.260;2023-05-09T08:43:50;3.80;;;1.50;;
49051;SDS011;34866;48.670;18.260;2023-05-09T08:46:16;4.38;;;1.23;;
49051;SDS011;34866;48.670;18.260;2023-05-09T08:49:25;2.72;;;1.33;;
49051;SDS011;34866;48.670;18.260;2023-05-09T08:51:57;2.75;;;1.17;;
49051;SDS011;34866;48.670;18.260;2023-05-09T08:54:25;3.40;;;1.73;;
49051;SDS011;34866;48.670;18.260;2023-05-09T08:56:56;3.47;;;1.52;;
49051;SDS011;34866;48.670;18.260;2023-05-09T08:59:22;3.90;;;1.70;;
49051;SDS011;34866;48.670;18.260;2023-05-09T09:01:48;3.20;;;1.30;;
49051;SDS011;34866;48.670;18.260;2023-05-09T09:04:15;7.88;;;1.80;;
49051;SDS011;34866;48.670;18.260;2023-05-09T09:06:41;3.17;;;1.48;;
49051;SDS011;34866;48.670;18.260;2023-05-09T09:09:07;2.45;;;1.15;;
49051;SDS011;34866;48.670;18.260;2023-05-09T09:11:34;6.93;;;1.92;;
49051;SDS011;34866;48.670;18.260;2023-05-09T09:14:05;3.17;;;1.20;;
49051;SDS011;34866;48.670;18.260;2023-05-09T09:16:36;4.07;;;1.67;;
49051;SDS011;34866;48.670;18.260;2023-05-09T09:19:10;3.42;;;1.60;;
49051;SDS011;34866;48.670;18.260;2023-05-09T09:21:39;5.13;;;2.35;;
49051;SDS011;34866;48.670;18.260;2023-05-09T09:24:07;4.68;;;1.50;;
49051;SDS011;34866;48.670;18.260;2023-05-09T09:26:53;4.43;;;1.50;;
49051;SDS011;34866;48.670;18.260;2023-05-09T09:29:28;6.30;;;1.70;;
49051;SDS011;34866;48.670;18.260;2023-05-09T09:31:55;2.85;;;1.33;;
49051;SDS011;34866;48.670;18.260;2023-05-09T09:34:21;4.40;;;1.50;;
49051;SDS011;34866;48.670;18.260;2023-05-09T09:36:48;4.68;;;1.45;;
49051;SDS011;34866;48.670;18.260;2023-05-09T09:39:14;3.45;;;1.48;;
49051;SDS011;34866;48.670;18.260;2023-05-09T09:41:40;3.33;;;1.73;;
49051;SDS011;34866;48.670;18.260;2023-05-09T09:44:16;3.75;;;1.40;;
49051;SDS011;34866;48.670;18.260;2023-05-09T09:46:47;2.90;;;1.33;;
49051;SDS011;34866;48.670;18.260;2023-05-09T09:49:24;3.17;;;1.23;;
49051;SDS011;34866;48.670;18.260;2023-05-09T09:54:39;6.57;;;1.52;;
49051;SDS011;34866;48.670;18.260;2023-05-09T09:57:05;3.10;;;1.40;;
49051;SDS011;34866;48.670;18.260;2023-05-09T09:59:31;5.05;;;1.25;;
49051;SDS011;34866;48.670;18.260;2023-05-09T10:09:30;2.85;;;1.05;;
49051;SDS011;34866;48.670;18.260;2023-05-09T10:12:00;1.92;;;0.93;;
49051;SDS011;34866;48.670;18.260;2023-05-09T10:14:30;2.25;;;1.23;;
49051;SDS011;34866;48.670;18.260;2023-05-09T10:16:57;2.83;;;1.30;;
49051;SDS011;34866;48.670;18.260;2023-05-09T10:19:29;2.80;;;1.13;;
49051;SDS011;34866;48.670;18.260;2023-05-09T10:22:01;3.30;;;1.48;;
49051;SDS011;34866;48.670;18.260;2023-05-09T10:27:08;3.28;;;1.38;;
49051;SDS011;34866;48.670;18.260;2023-05-09T10:29:40;3.17;;;1.20;;
49051;SDS011;34866;48.670;18.260;2023-05-09T10:32:22;2.47;;;1.05;;
49051;SDS011;34866;48.670;18.260;2023-05-09T10:35:04;3.35;;;1.30;;
49051;SDS011;34866;48.670;18.260;2023-05-09T10:37:31;2.92;;;1.20;;
49051;SDS011;34866;48.670;18.260;2023-05-09T10:39:58;2.72;;;1.30;;
49051;SDS011;34866;48.670;18.260;2023-05-09T10:42:26;3.33;;;1.42;;
49051;SDS011;34866;48.670;18.260;2023-05-09T10:44:53;2.42;;;1.05;;
49051;SDS011;34866;48.670;18.260;2023-05-09T10:47:27;2.50;;;1.10;;
49051;SDS011;34866;48.670;18.260;2023-05-09T10:49:53;4.38;;;1.17;;
49051;SDS011;34866;48.670;18.260;2023-05-09T10:52:22;3.38;;;1.70;;
49051;SDS011;34866;48.670;18.260;2023-05-09T10:54:58;3.15;;;1.25;;
49051;SDS011;34866;48.670;18.260;2023-05-09T10:57:27;2.22;;;1.13;;
49051;SDS011;34866;48.670;18.260;2023-05-09T10:59:55;7.45;;;1.20;;
49051;SDS011;34866;48.670;18.260;2023-05-09T11:02:21;2.47;;;1.00;;
49051;SDS011;34866;48.670;18.260;2023-05-09T11:07:38;3.15;;;1.00;;
49051;SDS011;34866;48.670;18.260;2023-05-09T11:10:07;4.03;;;1.38;;
49051;SDS011;34866;48.670;18.260;2023-05-09T11:12:41;2.92;;;1.13;;
49051;SDS011;34866;48.670;18.260;2023-05-09T11:15:21;3.67;;;1.23;;
49051;SDS011;34866;48.670;18.260;2023-05-09T11:17:50;2.50;;;1.13;;
49051;SDS011;34866;48.670;18.260;2023-05-09T11:20:31;2.67;;;1.10;;
49051;SDS011;34866;48.670;18.260;2023-05-09T11:22:59;3.00;;;0.98;;
49051;SDS011;34866;48.670;18.260;2023-05-09T11:25:27;2.70;;;1.05;;
49051;SDS011;34866;48.670;18.260;2023-05-09T11:27:57;2.78;;;0.90;;
49051;SDS011;34866;48.670;18.260;2023-05-09T11:30:33;2.45;;;1.00;;
49051;SDS011;34866;48.670;18.260;2023-05-09T11:33:03;2.28;;;1.35;;
49051;SDS011;34866;48.670;18.260;2023-05-09T11:35:31;9.60;;;1.13;;
49051;SDS011;34866;48.670;18.260;2023-05-09T11:38:01;2.70;;;0.90;;
49051;SDS011;34866;48.670;18.260;2023-05-09T11:40:34;2.65;;;1.20;;
49051;SDS011;34866;48.670;18.260;2023-05-09T11:43:01;3.45;;;1.45;;
49051;SDS011;34866;48.670;18.260;2023-05-09T11:45:30;2.65;;;1.20;;
49051;SDS011;34866;48.670;18.260;2023-05-09T11:47:57;2.80;;;1.08;;
49051;SDS011;34866;48.670;18.260;2023-05-09T11:50:28;3.00;;;1.00;;
49051;SDS011;34866;48.670;18.260;2023-05-09T11:52:53;2.42;;;1.15;;
49051;SDS011;34866;48.670;18.260;2023-05-09T11:55:20;3.10;;;1.00;;
49051;SDS011;34866;48.670;18.260;2023-05-09T11:57:50;1.92;;;0.88;;
49051;SDS011;34866;48.670;18.260;2023-05-09T12:00:17;2.28;;;1.15;;
49051;SDS011;34866;48.670;18.260;2023-05-09T12:02:46;1.70;;;0.77;;
49051;SDS011;34866;48.670;18.260;2023-05-09T12:08:01;2.15;;;1.15;;
49051;SDS011;34866;48.670;18.260;2023-05-09T12:10:28;2.85;;;1.00;;
49051;SDS011;34866;48.670;18.260;2023-05-09T12:12:57;1.95;;;0.80;;
49051;SDS011;34866;48.670;18.260;2023-05-09T12:15:22;1.90;;;0.88;;
49051;SDS011;34866;48.670;18.260;2023-05-09T12:20:47;1.80;;;0.90;;
49051;SDS011;34866;48.670;18.260;2023-05-09T12:23:16;1.63;;;0.80;;
49051;SDS011;34866;48.670;18.260;2023-05-09T12:26:00;2.75;;;0.90;;
49051;SDS011;34866;48.670;18.260;2023-05-09T12:28:26;2.35;;;0.80;;
49051;SDS011;34866;48.670;18.260;2023-05-09T12:30:52;2.15;;;0.75;;
49051;SDS011;34866;48.670;18.260;2023-05-09T12:33:20;1.77;;;0.80;;
49051;SDS011;34866;48.670;18.260;2023-05-09T12:36:00;1.60;;;0.80;;
49051;SDS011;34866;48.670;18.260;2023-05-09T12:38:37;1.27;;;0.70;;
49051;SDS011;34866;48.670;18.260;2023-05-09T12:41:03;2.42;;;0.80;;
49051;SDS011;34866;48.670;18.260;2023-05-09T12:43:33;2.55;;;1.00;;
49051;SDS011;34866;48.670;18.260;2023-05-09T12:46:01;1.77;;;0.75;;
49051;SDS011;34866;48.670;18.260;2023-05-09T12:48:27;3.25;;;1.02;;
49051;SDS011;34866;48.670;18.260;2023-05-09T12:50:54;2.33;;;0.80;;
49051;SDS011;34866;48.670;18.260;2023-05-09T12:53:25;5.20;;;0.80;;
49051;SDS011;34866;48.670;18.260;2023-05-09T12:58:58;1.85;;;0.80;;
49051;SDS011;34866;48.670;18.260;2023-05-09T13:01:27;1.73;;;0.70;;
49051;SDS011;34866;48.670;18.260;2023-05-09T13:04:03;2.22;;;0.90;;
49051;SDS011;34866;48.670;18.260;2023-05-09T13:06:30;1.42;;;0.70;;
49051;SDS011;34866;48.670;18.260;2023-05-09T13:08:59;2.38;;;0.88;;
49051;SDS011;34866;48.670;18.260;2023-05-09T13:11:26;2.03;;;0.88;;
49051;SDS011;34866;48.670;18.260;2023-05-09T13:13:54;4.43;;;0.70;;
49051;SDS011;34866;48.670;18.260;2023-05-09T13:16:20;6.38;;;1.65;;
49051;SDS011;34866;48.670;18.260;2023-05-09T13:18:46;2.03;;;0.82;;
49051;SDS011;34866;48.670;18.260;2023-05-09T13:21:11;1.88;;;0.95;;
49051;SDS011;34866;48.670;18.260;2023-05-09T13:23:39;1.42;;;0.60;;
49051;SDS011;34866;48.670;18.260;2023-05-09T13:26:06;1.65;;;0.70;;
49051;SDS011;34866;48.670;18.260;2023-05-09T13:28:32;1.92;;;0.60;;
49051;SDS011;34866;48.670;18.260;2023-05-09T13:30:57;3.38;;;0.80;;
49051;SDS011;34866;48.670;18.260;2023-05-09T13:33:25;1.85;;;0.70;;
49051;SDS011;34866;48.670;18.260;2023-05-09T13:36:10;8.95;;;0.80;;
49051;SDS011;34866;48.670;18.260;2023-05-09T13:38:36;1.77;;;0.70;;
49051;SDS011;34866;48.670;18.260;2023-05-09T13:41:04;1.50;;;0.70;;
49051;SDS011;34866;48.670;18.260;2023-05-09T13:43:30;1.42;;;0.65;;
49051;SDS011;34866;48.670;18.260;2023-05-09T13:45:56;1.30;;;0.68;;
49051;SDS011;34866;48.670;18.260;2023-05-09T13:48:22;1.30;;;0.60;;
49051;SDS011;34866;48.670;18.260;2023-05-09T13:50:48;1.25;;;0.65;;
49051;SDS011;34866;48.670;18.260;2023-05-09T13:53:18;1.08;;;0.60;;
49051;SDS011;34866;48.670;18.260;2023-05-09T13:55:43;2.60;;;0.73;;
49051;SDS011;34866;48.670;18.260;2023-05-09T13:58:10;4.47;;;0.70;;
49051;SDS011;34866;48.670;18.260;2023-05-09T14:00:38;5.72;;;0.70;;
49051;SDS011;34866;48.670;18.260;2023-05-09T14:03:11;1.67;;;0.65;;
49051;SDS011;34866;48.670;18.260;2023-05-09T14:05:37;1.83;;;0.68;;
49051;SDS011;34866;48.670;18.260;2023-05-09T14:08:04;5.63;;;0.80;;
49051;SDS011;34866;48.670;18.260;2023-05-09T14:10:31;1.42;;;0.60;;
49051;SDS011;34866;48.670;18.260;2023-05-09T14:12:59;5.88;;;1.00;;
49051;SDS011;34866;48.670;18.260;2023-05-09T14:15:26;1.77;;;0.73;;
49051;SDS011;34866;48.670;18.260;2023-05-09T14:17:53;1.30;;;0.57;;
49051;SDS011;34866;48.670;18.260;2023-05-09T14:20:19;1.60;;;0.70;;
49051;SDS011;34866;48.670;18.260;2023-05-09T14:22:48;2.13;;;0.70;;
49051;SDS011;34866;48.670;18.260;2023-05-09T14:25:13;4.47;;;0.70;;
49051;SDS011;34866;48.670;18.260;2023-05-09T14:27:39;1.50;;;0.70;;
49051;SDS011;34866;48.670;18.260;2023-05-09T14:30:11;2.53;;;0.95;;
49051;SDS011;34866;48.670;18.260;2023-05-09T14:32:37;6.45;;;0.90;;
49051;SDS011;34866;48.670;18.260;2023-05-09T14:35:06;2.47;;;0.82;;
49051;SDS011;34866;48.670;18.260;2023-05-09T14:37:32;1.52;;;0.60;;
49051;SDS011;34866;48.670;18.260;2023-05-09T14:39:58;1.40;;;0.63;;
49051;SDS011;34866;48.670;18.260;2023-05-09T14:42:29;7.03;;;1.42;;
49051;SDS011;34866;48.670;18.260;2023-05-09T14:45:36;11.05;;;1.00;;
49051;SDS011;34866;48.670;18.260;2023-05-09T14:48:02;2.95;;;0.80;;
49051;SDS011;34866;48.670;18.260;2023-05-09T14:50:28;1.75;;;0.70;;
49051;SDS011;34866;48.670;18.260;2023-05-09T14:52:53;1.85;;;0.70;;
49051;SDS011;34866;48.670;18.260;2023-05-09T14:55:19;3.05;;;0.70;;
49051;SDS011;34866;48.670;18.260;2023-05-09T14:57:47;1.33;;;0.50;;
49051;SDS011;34866;48.670;18.260;2023-05-09T15:00:13;1.38;;;0.70;;
49051;SDS011;34866;48.670;18.260;2023-05-09T15:02:40;2.05;;;0.77;;
49051;SDS011;34866;48.670;18.260;2023-05-09T15:05:09;1.33;;;0.60;;
49051;SDS011;34866;48.670;18.260;2023-05-09T15:07:35;3.00;;;0.93;;
49051;SDS011;34866;48.670;18.260;2023-05-09T15:10:16;5.68;;;0.80;;
49051;SDS011;34866;48.670;18.260;2023-05-09T15:12:45;1.65;;;0.70;;
49051;SDS011;34866;48.670;18.260;2023-05-09T15:15:34;1.55;;;0.57;;